Terminal Aerodrome Forecast
Issued by NWS

Home | Current Version | Previous Version | Text Only | Print | Product List | Glossary On
Versions: 1 2 3 4 5 6 7 8 9 10 11 12 13 14 15 16
000
FTUS44 KOHX 032320
TAFCKV
TAF
KCKV 032320Z 0400/0424 26003KT P6SM SCT250
     FM040700 27002KT 4SM BR SCT250
      TEMPO 0409/0412 2SM BR SCT003
     FM041400 27006KT P6SM SCT050=

USA.gov is the U.S. government's official web portal to all federal, state and local government web resources and services.